Time;durP1;ratioP1;P1;durP2;ratioP2;P2;SDS_P1;SDS_P2;PMS_P1;PMS_P2;Temp;Humidity;BMP_temperature;BMP_pressure;BME280_temperature;BME280_humidity;BME280_pressure;Samples;Min_cycle;Max_cycle;Signal;HPM_P1;HPM_P2
2022/03/19 00:02:18;;;;;;;;;6.25;6.25;;;;;13.56;32.07;103166.47;5037089;28;46158;-74
2022/03/19 00:04:44;;;;;;;;;7.00;7.00;;;;;13.56;31.73;103166.47;5054041;28;46011;-75
2022/03/19 00:07:09;;;;;;;;;4.25;4.25;;;;;13.51;31.65;103168.38;5055540;28;45303;-74
2022/03/19 00:09:35;;;;;;;;;6.75;5.00;;;;;13.49;31.75;103164.81;5037588;28;45646;-73
2022/03/19 00:12:00;;;;;;;;;3.75;3.75;;;;;13.49;31.81;103172.00;5033826;28;45565;-74
2022/03/19 00:14:26;;;;;;;;;5.50;4.00;;;;;13.47;31.77;103160.34;5033495;28;48037;-74
2022/03/19 00:16:52;;;;;;;;;6.75;5.75;;;;;13.45;31.60;103167.56;5033491;28;45382;-74
2022/03/19 00:19:18;;;;;;;;;9.00;6.00;;;;;13.37;31.82;103151.56;5033571;28;45506;-74
2022/03/19 00:21:44;;;;;;;;;7.75;6.00;;;;;13.42;31.72;103171.25;5055297;28;45505;-74
2022/03/19 00:24:10;;;;;;;;;13.00;6.00;;;;;13.34;31.47;103151.63;5053736;28;48402;-74
2022/03/19 00:26:36;;;;;;;;;5.75;5.25;;;;;13.37;31.83;103156.06;5033533;28;45294;-74
2022/03/19 00:29:01;;;;;;;;;8.75;6.00;;;;;13.36;31.81;103159.66;5050348;28;45487;-73
2022/03/19 05:30:12;;;;;;;;;24.00;18.75;;;;;10.81;41.02;103025.34;5058476;27;45770;-74
2022/03/19 05:32:39;;;;;;;;;15.00;11.75;;;;;10.81;41.08;103019.09;5050285;28;45640;-75
2022/03/19 05:35:05;;;;;;;;;26.00;21.25;;;;;10.83;40.64;103023.56;5035830;28;45276;-73
2022/03/19 05:37:32;;;;;;;;;20.75;19.25;;;;;10.80;40.98;103030.78;5035215;28;46114;-73
2022/03/19 05:39:59;;;;;;;;;28.75;16.75;;;;;10.78;41.12;103025.41;5054048;28;45371;-75
2022/03/19 05:42:25;;;;;;;;;24.25;18.75;;;;;10.77;41.21;103033.47;5035715;28;45198;-73
2022/03/19 05:44:50;;;;;;;;;23.50;20.75;;;;;10.68;41.92;103021.03;5036144;28;45334;-75
2022/03/19 05:47:16;;;;;;;;;31.75;21.50;;;;;10.64;41.85;103011.22;5035768;28;46349;-75
2022/03/19 05:49:42;;;;;;;;;22.50;20.00;;;;;10.68;41.99;103022.81;5054260;28;45433;-76
2022/03/19 05:52:08;;;;;;;;;30.75;22.25;;;;;10.69;41.71;103024.63;5035629;28;45903;-74
2022/03/19 05:54:34;;;;;;;;;29.75;23.00;;;;;10.62;42.30;103023.78;5054292;28;45302;-75
2022/03/19 05:56:59;;;;;;;;;24.50;21.00;;;;;10.66;41.99;103030.88;5035518;28;47547;-75
2022/03/19 05:59:24;;;;;;;;;25.00;23.25;;;;;10.64;42.07;103027.31;5032506;28;47828;-75
2022/03/19 06:01:50;;;;;;;;;34.00;23.75;;;;;10.59;42.58;103015.75;5034443;28;45299;-76
2022/03/19 06:04:15;;;;;;;;;24.25;23.25;;;;;10.64;42.42;103027.31;5035849;28;45523;-75
2022/03/19 06:06:41;;;;;;;;;19.25;19.25;;;;;10.58;42.74;103017.56;5035408;28;46387;-75
2022/03/19 06:09:07;;;;;;;;;27.00;26.00;;;;;10.58;42.60;103028.28;5035704;28;46743;-74
2022/03/19 06:11:32;;;;;;;;;32.00;25.75;;;;;10.61;42.55;103025.59;5032088;28;45300;-74
2022/03/19 06:13:58;;;;;;;;;34.00;23.25;;;;;10.59;42.37;103037.22;5035740;28;45319;-72
2022/03/19 06:16:25;;;;;;;;;31.50;23.75;;;;;10.56;42.60;103032.75;5054709;28;45319;-75
2022/03/19 06:18:51;;;;;;;;;31.75;26.25;;;;;10.53;43.21;103030.13;5054928;28;45360;-75
2022/03/19 06:21:20;;;;;;;;;27.25;24.25;;;;;10.54;43.11;103036.38;5033239;28;45292;-75
2022/03/19 06:23:46;;;;;;;;;28.00;26.25;;;;;10.51;43.42;103029.25;5028568;28;45458;-77
2022/03/19 06:26:12;;;;;;;;;25.75;24.25;;;;;10.47;43.31;103029.28;5035062;28;47021;-76
2022/03/19 06:28:38;;;;;;;;;27.75;23.50;;;;;10.41;43.38;103024.88;5053662;28;46113;-77
2022/03/19 06:31:03;;;;;;;;;41.50;30.00;;;;;10.50;43.39;103039.97;5034613;28;45356;-74
2022/03/19 06:33:29;;;;;;;;;34.00;27.00;;;;;10.43;43.64;103024.84;5053370;28;45457;-76
2022/03/19 06:38:38;;;;;;;;;36.00;31.00;;;;;10.47;43.70;103035.53;5048423;28;45839;-77
2022/03/19 06:41:04;;;;;;;;;33.25;29.00;;;;;10.45;43.62;103028.41;5054229;28;45287;-76
2022/03/19 06:43:31;;;;;;;;;39.25;29.25;;;;;10.50;43.83;103031.94;5053575;28;45360;-75
2022/03/19 06:45:58;;;;;;;;;31.00;29.25;;;;;10.48;44.15;103036.41;5052746;28;45539;-77
2022/03/19 06:48:27;;;;;;;;;31.00;28.50;;;;;10.49;44.44;103025.69;5054074;28;45483;-75
2022/03/19 06:50:56;;;;;;;;;48.75;34.75;;;;;10.45;44.28;103032.00;5056818;28;45381;-75
2022/03/19 06:53:22;;;;;;;;;35.00;34.00;;;;;10.53;44.73;103039.97;5056821;28;45439;-75
2022/03/19 06:55:48;;;;;;;;;39.00;30.25;;;;;10.50;44.61;103034.63;5056494;28;45519;-74
2022/03/19 06:58:13;;;;;;;;;43.25;37.00;;;;;10.49;44.91;103035.53;5056646;28;46077;-74
2022/03/19 07:00:40;;;;;;;;;39.75;31.75;;;;;10.54;44.35;103037.28;5056058;28;45432;-74
2022/03/19 07:03:06;;;;;;;;;47.50;37.25;;;;;10.47;44.56;103019.44;5037725;28;45384;-74
2022/03/19 07:05:32;;;;;;;;;53.75;38.75;;;;;10.49;45.16;103019.44;5056369;28;45520;-75
2022/03/19 07:07:59;;;;;;;;;39.50;35.00;;;;;10.55;45.36;103041.72;5056609;28;46009;-73
2022/03/19 07:10:24;;;;;;;;;47.50;36.75;;;;;10.56;45.25;103030.09;5056553;28;45497;-75
2022/03/19 07:12:52;;;;;;;;;41.75;37.00;;;;;10.59;45.33;103031.84;5056574;28;45382;-73
2022/03/19 07:15:20;;;;;;;;;46.75;37.25;;;;;10.42;44.87;102996.25;5055912;28;45308;-74
2022/03/19 07:17:46;;;;;;;;;45.75;36.50;;;;;10.63;45.22;103035.41;5055895;28;45434;-77
2022/03/19 07:20:14;;;;;;;;;44.00;39.25;;;;;10.58;45.34;103025.59;5054733;28;45519;-76
2022/03/19 07:22:51;;;;;;;;;48.75;37.00;;;;;10.65;45.38;103034.47;5056959;28;45402;-79
2022/03/19 07:25:18;;;;;;;;;47.50;37.50;;;;;10.52;45.36;103012.25;5038754;28;46144;-73
2022/03/19 07:27:44;;;;;;;;;49.00;40.25;;;;;10.68;45.53;103023.72;5056109;28;46195;-72
2022/03/19 07:30:10;;;;;;;;;49.00;36.75;;;;;10.63;45.23;103022.00;5055216;28;45471;-71
2022/03/19 07:32:37;;;;;;;;;50.50;38.75;;;;;10.75;45.70;103030.78;5055780;28;45612;-73
2022/03/19 07:35:02;;;;;;;;;50.50;40.25;;;;;10.65;45.83;103010.31;5055729;28;45553;-72
2022/03/19 07:37:28;;;;;;;;;37.75;35.75;;;;;10.78;45.75;103027.19;5055646;28;47714;-72
2022/03/19 07:39:56;;;;;;;;;54.25;40.75;;;;;10.80;45.82;103025.41;5056095;28;45306;-72
2022/03/19 07:42:21;;;;;;;;;39.75;35.75;;;;;10.81;45.47;103028.03;5055905;28;45242;-72
2022/03/19 07:44:48;;;;;;;;;57.25;41.00;;;;;10.84;46.00;103032.50;5055657;28;45440;-72
2022/03/19 07:47:14;;;;;;;;;54.50;44.75;;;;;10.84;45.87;103032.50;5033797;28;48347;-73
2022/03/19 07:49:40;;;;;;;;;51.75;38.75;;;;;10.76;45.98;103008.44;5046922;28;45434;-74
2022/03/19 07:52:06;;;;;;;;;46.50;38.75;;;;;10.88;46.04;103021.72;5032334;28;45422;-72
2022/03/19 07:54:32;;;;;;;;;58.00;42.50;;;;;10.96;46.43;103018.97;5046315;28;45413;-76
2022/03/19 07:56:58;;;;;;;;;55.50;44.00;;;;;11.07;46.02;103027.75;5055329;28;46407;-75
2022/03/19 07:59:24;;;;;;;;;55.00;44.25;;;;;11.07;46.37;103019.69;5055108;28;45318;-72
2022/03/19 08:01:50;;;;;;;;;50.50;41.00;;;;;11.14;46.03;103021.44;5055362;28;45527;-74
2022/03/19 08:04:16;;;;;;;;;55.75;44.25;;;;;11.25;45.90;103018.59;5055426;28;45363;-75
2022/03/19 08:06:41;;;;;;;;;62.00;46.00;;;;;11.31;45.65;103026.59;5054792;28;46153;-74
2022/03/19 08:09:09;;;;;;;;;46.50;40.25;;;;;11.36;45.30;103025.63;5037435;28;45498;-74
2022/03/19 08:11:35;;;;;;;;;57.25;44.50;;;;;11.37;45.22;103022.03;5055588;28;45287;-76
2022/03/19 08:14:01;;;;;;;;;58.50;45.50;;;;;11.35;45.73;103004.16;5055614;28;45512;-74
2022/03/19 08:16:26;;;;;;;;;56.00;46.25;;;;;11.45;45.63;103010.28;5054960;28;46061;-75
2022/03/19 08:18:52;;;;;;;;;60.25;42.25;;;;;11.53;45.37;103014.66;5055185;28;45370;-75
2022/03/19 08:21:18;;;;;;;;;56.50;45.00;;;;;11.62;45.14;103016.31;5034134;28;45383;-74
2022/03/19 08:23:43;;;;;;;;;56.00;43.00;;;;;11.61;45.24;103011.84;5048399;28;45170;-75
2022/03/19 08:26:09;;;;;;;;;62.25;47.00;;;;;11.61;45.32;103001.09;5055105;28;45565;-73
2022/03/19 08:28:34;;;;;;;;;56.33;42.00;;;;;11.69;45.20;103007.25;5055305;28;45441;-74
2022/03/19 08:31:00;;;;;;;;;57.25;43.75;;;;;11.71;45.17;103009.03;5054919;28;45290;-75
2022/03/19 08:33:25;;;;;;;;;58.50;45.50;;;;;11.72;45.55;103010.81;5054812;28;45313;-74
2022/03/19 08:35:51;;;;;;;;;55.33;46.00;;;;;11.73;45.49;103006.31;5055173;28;45618;-75
2022/03/19 08:41:00;;;;;;;;;50.50;43.00;;;;;11.73;45.17;103001.84;5055386;28;45380;-73
2022/03/19 08:43:26;;;;;;;;;62.75;48.00;;;;;11.78;45.46;103000.91;5054865;28;45161;-73
2022/03/19 08:45:51;;;;;;;;;60.00;44.33;;;;;11.75;44.93;102997.34;5054977;28;46915;-75
2022/03/19 08:48:19;;;;;;;;;58.00;46.67;;;;;11.74;44.96;102987.50;5054810;28;45482;-75
2022/03/19 08:50:46;;;;;;;;;65.00;50.00;;;;;11.83;45.19;103007.06;5055273;28;45299;-74
2022/03/19 08:53:13;;;;;;;;;62.00;45.33;;;;;11.83;45.10;103002.59;5054934;28;45405;-73
2022/03/19 08:55:39;;;;;;;;;62.00;50.00;;;;;11.80;45.35;102999.09;5054591;28;45440;-75
2022/03/19 08:58:04;;;;;;;;;59.33;46.00;;;;;11.92;45.47;103006.94;5054898;28;45355;-73
2022/03/19 09:00:30;;;;;;;;;63.50;47.25;;;;;11.94;45.18;103002.44;5054760;28;45441;-71
2022/03/19 09:02:55;;;;;;;;;66.33;49.67;;;;;11.93;45.32;102992.59;5054361;28;45591;-73
2022/03/19 09:05:21;;;;;;;;;66.00;49.00;;;;;12.03;45.20;102996.91;5054734;28;45509;-73
2022/03/19 09:07:47;;;;;;;;;61.33;48.00;;;;;12.08;44.95;103003.97;5054691;28;45388;-73
2022/03/19 09:10:12;;;;;;;;;62.00;49.33;;;;;12.10;44.81;103004.84;5054769;28;45581;-73
2022/03/19 09:12:39;;;;;;;;;57.33;45.67;;;;;12.12;44.65;103000.34;5053985;28;45884;-72
2022/03/19 09:15:06;;;;;;;;;63.33;47.67;;;;;12.09;44.24;102989.63;5054365;28;45377;-71
2022/03/19 09:17:32;;;;;;;;;64.00;49.67;;;;;12.19;44.13;103001.13;5054528;28;45295;-75
2022/03/19 09:19:57;;;;;;;;;63.00;48.33;;;;;12.13;44.28;102983.31;5054634;28;45706;-72
2022/03/19 09:22:23;;;;;;;;;60.75;46.25;;;;;12.22;43.87;102995.72;5054567;28;45380;-73
2022/03/19 09:24:48;;;;;;;;;62.67;45.33;;;;;12.24;43.72;102993.00;5054551;28;46324;-72
2022/03/19 09:27:14;;;;;;;;;69.00;48.67;;;;;12.31;43.18;102990.19;5033483;28;45303;-72
2022/03/19 09:29:39;;;;;;;;;61.33;48.00;;;;;12.34;43.45;102982.03;5033098;28;45355;-74
2022/03/19 09:32:05;;;;;;;;;62.00;48.67;;;;;12.38;43.19;102988.25;5047904;28;45531;-73
2022/03/19 09:34:31;;;;;;;;;64.00;49.75;;;;;12.46;43.07;102991.69;5054214;28;45330;-73
2022/03/19 09:36:56;;;;;;;;;61.25;46.75;;;;;12.48;42.64;102980.00;5054184;28;45292;-72
2022/03/19 09:39:22;;;;;;;;;60.00;45.25;;;;;12.56;43.13;102985.25;5054258;28;45275;-72
2022/03/19 09:41:47;;;;;;;;;63.67;49.33;;;;;12.59;42.33;102989.69;5054138;28;45298;-75
2022/03/19 09:44:13;;;;;;;;;59.00;49.00;;;;;12.57;42.13;102981.63;5054035;28;45452;-73
2022/03/19 09:46:39;;;;;;;;;57.50;43.50;;;;;12.63;42.48;102984.19;5053534;28;45326;-72
2022/03/19 09:49:04;;;;;;;;;64.00;48.25;;;;;12.62;42.13;102960.00;5054122;28;45317;-72
2022/03/19 09:51:34;;;;;;;;;59.75;48.25;;;;;12.73;42.85;102968.78;5053855;28;45306;-73
2022/03/19 09:54:00;;;;;;;;;62.33;47.00;;;;;12.81;42.14;102972.19;5054061;28;46101;-73
2022/03/19 09:56:25;;;;;;;;;62.25;45.75;;;;;12.88;41.73;102976.53;5053873;28;45366;-72
2022/03/19 09:58:52;;;;;;;;;58.25;47.75;;;;;12.87;41.61;102962.19;5054682;28;45307;-72
2022/03/19 10:01:18;;;;;;;;;60.25;45.00;;;;;12.94;40.85;102964.75;5053573;28;45346;-75
2022/03/19 10:03:44;;;;;;;;;56.25;45.00;;;;;12.96;41.24;102958.44;5054036;28;45681;-73
2022/03/19 10:08:58;;;;;;;;;55.50;43.00;;;;;13.08;40.86;102954.59;5053971;28;45243;-73
2022/03/19 10:11:28;;;;;;;;;64.00;47.25;;;;;13.11;40.70;102955.41;5053766;28;45569;-71
2022/03/19 10:13:54;;;;;;;;;58.00;46.50;;;;;13.13;40.76;102953.59;5035720;28;47123;-76
2022/03/19 10:16:26;;;;;;;;;59.75;45.50;;;;;13.16;40.70;102940.09;5034304;28;45367;-74
2022/03/19 10:19:03;;;;;;;;;60.75;45.25;;;;;13.27;40.11;102943.41;5052279;28;45335;-71
2022/03/19 10:21:29;;;;;;;;;60.50;46.00;;;;;13.27;40.02;102932.63;5039360;28;45304;-70
2022/03/19 10:23:59;;;;;;;;;63.50;50.00;;;;;13.36;39.88;102936.03;5052362;28;45454;-70
2022/03/19 10:26:33;;;;;;;;;56.75;47.25;;;;;13.42;39.98;102927.84;5057166;28;45390;-71
2022/03/19 10:29:02;;;;;;;;;54.25;42.50;;;;;13.43;39.90;102926.94;5057432;28;45422;-71
2022/03/19 10:31:38;;;;;;;;;62.50;47.75;;;;;13.50;39.53;102925.84;5056832;28;45608;-71
2022/03/19 10:34:05;;;;;;;;;59.25;48.00;;;;;13.49;39.24;102922.28;5056712;28;46630;-71
2022/03/19 10:36:39;;;;;;;;;56.00;44.50;;;;;13.52;39.39;102924.03;5056993;28;45314;-71
2022/03/19 10:39:22;;;;;;;;;55.00;45.25;;;;;13.59;39.21;102929.22;5057132;28;45426;-70
2022/03/19 10:41:48;;;;;;;;;57.50;46.75;;;;;13.63;38.73;102921.94;5056961;28;45211;-70
2022/03/19 10:44:21;;;;;;;;;54.00;43.00;;;;;13.65;38.90;102917.41;5056693;28;46199;-71
2022/03/19 10:46:51;;;;;;;;;57.75;47.25;;;;;13.71;38.90;102919.94;5056441;28;45453;-69
2022/03/19 10:49:21;;;;;;;;;60.25;47.75;;;;;13.73;38.73;102910.00;5057084;28;45366;-71
2022/03/19 10:51:50;;;;;;;;;63.75;48.00;;;;;13.82;38.49;102912.47;5056905;28;45604;-71
2022/03/19 10:54:16;;;;;;;;;56.25;44.00;;;;;13.86;38.06;102910.63;5056935;28;45480;-70
2022/03/19 10:56:43;;;;;;;;;58.00;48.00;;;;;13.91;37.95;102900.59;5052499;28;46412;-70
2022/03/19 10:59:08;;;;;;;;;56.50;45.25;;;;;13.95;37.27;102908.53;5049714;28;45514;-72
2022/03/19 11:01:35;;;;;;;;;54.00;45.75;;;;;14.05;37.31;102916.41;5054725;28;45402;-71
2022/03/19 11:04:03;;;;;;;;;57.00;44.50;;;;;14.12;36.87;102900.00;5048625;28;45279;-70
2022/03/19 11:06:34;;;;;;;;;63.25;45.50;;;;;14.23;37.06;102906.03;5056365;28;45351;-70
2022/03/19 11:09:05;;;;;;;;;54.00;44.25;;;;;14.32;36.83;102888.69;5053692;28;45437;-71
2022/03/19 11:11:39;;;;;;;;;53.25;43.25;;;;;14.47;36.48;102888.31;5055976;28;45380;-70
2022/03/19 11:14:07;;;;;;;;;54.75;44.50;;;;;14.62;36.26;102889.69;5034824;28;46394;-70
2022/03/19 11:16:36;;;;;;;;;55.25;43.50;;;;;14.80;36.33;102891.84;5043655;28;45380;-70
2022/03/19 11:19:03;;;;;;;;;55.50;41.00;;;;;14.98;35.91;102885.00;5046989;28;45401;-70
2022/03/19 11:21:32;;;;;;;;;54.75;43.00;;;;;15.18;35.50;102884.41;5049142;28;45331;-71
2022/03/19 11:24:06;;;;;;;;;58.00;44.00;;;;;15.37;34.62;102880.22;5044973;28;46190;-72
2022/03/19 11:26:32;;;;;;;;;54.75;45.75;;;;;15.56;34.61;102873.31;5054181;28;45414;-71
2022/03/19 11:28:58;;;;;;;;;59.75;42.50;;;;;15.63;33.59;102855.06;5056424;28;45443;-72
2022/03/19 11:31:29;;;;;;;;;57.50;44.50;;;;;16.00;33.08;102871.78;5055931;28;45448;-71
2022/03/19 11:34:12;;;;;;;;;58.25;44.50;;;;;16.17;32.96;102869.38;5054961;28;46122;-70
2022/03/19 11:36:53;;;;;;;;;56.25;43.25;;;;;16.39;32.73;102839.72;5037831;28;45455;-70
2022/03/19 11:39:19;;;;;;;;;54.00;42.75;;;;;16.61;32.23;102827.19;5056055;28;45157;-70
2022/03/19 11:41:49;;;;;;;;;46.75;38.75;;;;;17.02;31.33;102849.94;5056102;28;45482;-71
2022/03/19 11:44:24;;;;;;;;;61.00;45.00;;;;;17.39;31.02;102853.91;5055207;28;46322;-70
2022/03/19 11:47:16;;;;;;;;;56.50;44.25;;;;;17.67;30.71;102835.59;5035855;28;45702;-71
2022/03/19 11:49:56;;;;;;;;;50.75;39.75;;;;;18.20;30.17;102843.22;5035063;28;45584;-71
2022/03/19 11:52:24;;;;;;;;;49.00;38.25;;;;;18.50;29.21;102846.38;5055884;28;45461;-72
2022/03/19 11:55:07;;;;;;;;;56.00;42.25;;;;;18.69;28.67;102831.03;5055895;28;46188;-76
2022/03/19 11:58:03;;;;;;;;;56.50;43.50;;;;;19.03;28.22;102840.31;5055912;28;45283;-74
2022/03/19 12:00:35;;;;;;;;;50.75;39.75;;;;;19.20;27.23;102824.06;5037505;28;45439;-75
2022/03/19 12:03:17;;;;;;;;;51.75;42.50;;;;;19.52;26.86;102833.38;5055629;28;45443;-73
2022/03/19 12:05:48;;;;;;;;;42.00;34.75;;;;;19.79;26.96;102823.81;5055341;28;46618;-71
2022/03/19 12:08:19;;;;;;;;;46.50;37.75;;;;;20.05;27.01;102811.56;5055504;28;45222;-73
2022/03/19 12:10:57;;;;;;;;;49.25;41.25;;;;;20.38;25.99;102787.09;5055689;28;45346;-72
2022/03/19 12:13:28;;;;;;;;;48.00;40.75;;;;;21.09;25.37;102796.72;5033971;28;45456;-72
2022/03/19 12:16:02;;;;;;;;;50.25;41.50;;;;;22.07;24.24;102794.50;5050610;28;46304;-71
2022/03/19 12:18:39;;;;;;;;;45.00;37.50;;;;;22.95;22.49;102790.75;5055128;28;45353;-72
2022/03/19 12:21:10;;;;;;;;;52.00;42.25;;;;;23.58;21.41;102787.44;5055565;28;45362;-72
2022/03/19 12:23:41;;;;;;;;;51.75;37.50;;;;;23.98;20.61;102786.44;5055392;28;45544;-71
2022/03/19 12:26:08;;;;;;;;;48.50;37.75;;;;;24.01;20.87;102777.09;5055177;28;45357;-73
2022/03/19 12:28:35;;;;;;;;;50.00;38.50;;;;;24.10;20.22;102770.97;5055466;28;45176;-73
2022/03/19 12:31:06;;;;;;;;;49.75;38.75;;;;;24.56;20.55;102762.22;5054916;28;45273;-75
2022/03/19 12:33:33;;;;;;;;;51.50;39.50;;;;;25.31;19.81;102758.41;5053596;28;45366;-72
2022/03/19 12:36:11;;;;;;;;;50.75;37.75;;;;;25.76;18.89;102750.38;5053694;28;45504;-72
2022/03/19 12:38:36;;;;;;;;;53.00;39.50;;;;;26.24;18.29;102740.97;5054031;28;45481;-73
2022/03/19 12:43:45;;;;;;;;;49.50;40.25;;;;;27.43;17.93;102731.06;5053566;28;45471;-72
2022/03/19 12:46:11;;;;;;;;;44.25;38.50;;;;;28.02;17.57;102728.66;5052300;28;45318;-71
2022/03/19 12:48:39;;;;;;;;;51.50;37.00;;;;;28.63;17.08;102723.16;5032427;28;46357;-72
2022/03/19 12:51:05;;;;;;;;;52.25;39.50;;;;;29.27;16.48;102717.19;5044627;28;45443;-71
2022/03/19 12:53:40;;;;;;;;;53.50;42.00;;;;;29.68;14.91;102711.44;5032143;28;45250;-72
2022/03/19 12:56:16;;;;;;;;;51.00;42.25;;;;;29.90;15.23;102695.50;5045911;28;46304;-79
2022/03/19 12:58:45;;;;;;;;;51.00;39.25;;;;;30.05;15.16;102681.06;5049310;28;45424;-79
2022/03/19 13:01:11;;;;;;;;;51.75;40.25;;;;;30.47;15.26;102698.09;5051873;28;45431;-76
2022/03/19 13:03:38;;;;;;;;;49.00;39.75;;;;;30.48;14.50;102677.69;5051612;28;45279;-78
2022/03/19 13:06:04;;;;;;;;;45.00;38.00;;;;;30.17;15.24;102667.06;5051345;28;46982;-78
2022/03/19 13:08:29;;;;;;;;;43.75;37.50;;;;;30.03;14.99;102674.81;5051353;28;45489;-77
2022/03/19 13:10:54;;;;;;;;;29.75;29.75;;;;;30.23;14.88;102666.44;5052063;28;45339;-77
2022/03/19 13:13:20;;;;;;;;;46.75;40.00;;;;;30.27;14.06;102665.13;5051526;28;45532;-77
2022/03/19 13:15:52;;;;;;;;;47.75;39.50;;;;;30.33;14.60;102654.31;5051149;28;46409;-80
2022/03/19 13:18:28;;;;;;;;;38.25;33.25;;;;;30.35;14.56;102652.28;5050483;28;45439;-76
2022/03/19 13:21:02;;;;;;;;;47.75;37.50;;;;;30.54;14.70;102650.47;5051528;28;45526;-76
2022/03/19 13:23:31;;;;;;;;;45.50;36.50;;;;;30.95;14.44;102649.00;5051116;28;45941;-77
2022/03/19 13:25:58;;;;;;;;;44.50;38.25;;;;;31.00;14.44;102619.78;5051080;28;46148;-78
2022/03/19 13:28:24;;;;;;;;;48.50;37.25;;;;;31.32;13.60;102643.31;5051095;28;45283;-77
2022/03/19 13:30:50;;;;;;;;;41.80;35.40;;;;;31.61;13.71;102631.94;5011134;28;1134022;-78
2022/03/19 13:33:18;;;;;;;;;43.00;36.00;;;;;31.78;13.81;102625.50;5052266;28;45377;-78
2022/03/19 13:35:47;;;;;;;;;45.00;35.00;;;;;31.99;13.89;102625.09;5052956;28;46326;-75
2022/03/19 13:38:19;;;;;;;;;47.50;39.00;;;;;31.88;13.23;102620.72;5052535;28;45359;-79
2022/03/19 13:40:46;;;;;;;;;49.25;38.75;;;;;31.80;13.24;102612.34;5034563;28;45378;-79
2022/03/19 13:43:11;;;;;;;;;48.50;39.75;;;;;32.07;13.69;102612.13;5052806;28;45418;-79
2022/03/19 13:45:37;;;;;;;;;45.00;36.50;;;;;32.34;13.51;102613.84;5052749;28;45862;-78
2022/03/19 13:48:10;;;;;;;;;43.75;35.25;;;;;32.29;13.66;102597.72;5052479;28;45612;-77
2022/03/19 13:50:38;;;;;;;;;43.50;36.00;;;;;32.23;13.95;102589.19;5040231;28;45448;-79
2022/03/19 13:53:08;;;;;;;;;46.50;39.50;;;;;32.50;13.66;102590.81;5053310;28;45591;-80
2022/03/19 13:55:40;;;;;;;;;44.75;38.50;;;;;32.51;14.01;102584.22;5052110;28;45261;-77
2022/03/19 13:58:09;;;;;;;;;35.25;31.75;;;;;32.62;13.47;102587.56;5054058;28;45353;-77
2022/03/19 14:00:39;;;;;;;;;43.75;37.25;;;;;32.72;13.69;102586.56;5057095;28;45457;-75
2022/03/19 14:03:12;;;;;;;;;46.75;39.25;;;;;32.84;13.23;102574.94;5057205;28;45313;-76
2022/03/19 14:05:40;;;;;;;;;49.50;36.50;;;;;32.94;13.05;102570.09;5057997;28;45545;-78
2022/03/19 14:08:15;;;;;;;;;48.00;39.00;;;;;32.83;12.69;102566.81;5057682;28;45494;-77
2022/03/19 14:10:43;;;;;;;;;47.25;37.25;;;;;32.76;13.50;102549.94;5057840;28;45389;-76
2022/03/19 14:13:15;;;;;;;;;46.50;37.75;;;;;32.75;12.56;102539.84;5057221;28;45559;-77
2022/03/19 14:15:54;;;;;;;;;48.75;38.75;;;;;32.69;13.59;102560.00;5057266;28;46086;-77
2022/03/19 14:18:22;;;;;;;;;41.75;33.25;;;;;32.61;15.22;102563.59;5057053;28;45310;-78
2022/03/19 14:20:48;;;;;;;;;45.75;38.25;;;;;32.62;15.23;102533.91;5039875;28;45366;-78
2022/03/19 14:23:13;;;;;;;;;50.50;40.00;;;;;32.64;14.38;102538.28;5058405;28;45465;-77
2022/03/19 14:25:39;;;;;;;;;48.25;38.75;;;;;32.66;14.85;102546.44;5056481;28;45965;-71
2022/03/19 14:28:07;;;;;;;;;42.75;35.25;;;;;32.63;13.85;102530.97;5057232;28;45338;-71
2022/03/19 14:30:32;;;;;;;;;42.50;35.00;;;;;32.81;14.65;102541.09;5056121;28;45432;-70
2022/03/19 14:33:01;;;;;;;;;44.00;36.25;;;;;32.45;14.12;102512.72;5057149;28;45373;-70
2022/03/19 14:35:51;;;;;;;;;44.75;34.25;;;;;32.42;13.80;102547.25;5056812;28;45547;-72
2022/03/19 14:38:22;;;;;;;;;47.25;36.75;;;;;31.80;13.95;102540.22;5052600;28;46578;-70
2022/03/19 14:40:50;;;;;;;;;40.25;33.75;;;;;31.65;14.99;102528.88;5056265;28;45365;-71
2022/03/19 14:43:17;;;;;;;;;44.00;36.00;;;;;31.67;14.36;102537.91;5056691;28;45575;-70
2022/03/19 14:45:48;;;;;;;;;42.75;36.75;;;;;31.56;14.03;102529.81;5056185;28;45354;-71
2022/03/19 14:48:15;;;;;;;;;48.00;36.00;;;;;31.14;14.83;102518.63;5056487;28;45279;-71
2022/03/19 14:50:40;;;;;;;;;45.75;36.50;;;;;30.97;15.35;102528.69;5056432;28;45438;-71
2022/03/19 14:53:06;;;;;;;;;44.25;35.25;;;;;30.91;15.57;102520.16;5056237;28;45568;-69
2022/03/19 14:55:32;;;;;;;;;52.00;42.75;;;;;30.91;15.43;102514.63;5056258;28;46183;-71
2022/03/19 14:57:58;;;;;;;;;44.75;35.75;;;;;30.83;15.54;102499.69;5056637;28;45339;-70
2022/03/19 15:00:23;;;;;;;;;41.00;33.25;;;;;30.77;15.74;102502.22;5056001;28;45370;-70
2022/03/19 15:02:49;;;;;;;;;45.00;37.75;;;;;30.70;15.29;102504.75;5055713;28;45699;-71
2022/03/19 15:05:15;;;;;;;;;43.75;35.75;;;;;30.46;15.33;102494.28;5056524;28;45928;-72
2022/03/19 15:07:41;;;;;;;;;35.50;32.00;;;;;30.17;15.09;102493.63;5056610;28;45379;-70
2022/03/19 15:10:07;;;;;;;;;45.75;36.25;;;;;30.03;15.23;102480.31;5055875;28;45524;-71
2022/03/19 15:12:34;;;;;;;;;45.75;36.50;;;;;29.92;15.52;102497.97;5038561;28;46336;-70
2022/03/19 15:15:01;;;;;;;;;45.00;35.50;;;;;29.76;15.36;102492.25;5034686;28;46594;-69
2022/03/19 15:17:26;;;;;;;;;46.50;39.00;;;;;29.73;15.76;102501.72;5050477;28;45342;-71
2022/03/19 15:19:52;;;;;;;;;46.00;39.75;;;;;29.49;15.74;102487.56;5056561;28;45458;-69
2022/03/19 15:22:17;;;;;;;;;41.50;36.00;;;;;29.52;15.74;102484.47;5055944;28;45454;-71
2022/03/19 15:24:42;;;;;;;;;40.25;34.75;;;;;29.56;15.53;102468.47;5055403;28;45399;-70
2022/03/19 15:27:09;;;;;;;;;51.75;38.50;;;;;29.45;16.08;102476.94;5056001;28;45239;-70
2022/03/19 15:29:35;;;;;;;;;39.50;34.25;;;;;29.18;16.06;102472.19;5043299;28;45510;-70
2022/03/19 15:32:00;;;;;;;;;47.75;36.50;;;;;29.09;15.49;102464.84;5055707;28;45381;-71
2022/03/19 15:34:25;;;;;;;;;47.50;38.75;;;;;29.00;16.43;102461.09;5034068;28;47240;-71
2022/03/19 15:36:51;;;;;;;;;45.00;36.75;;;;;29.01;17.19;102448.16;5049437;28;45405;-70
2022/03/19 15:39:16;;;;;;;;;45.00;36.00;;;;;28.90;15.56;102446.44;5055438;28;45325;-71
2022/03/19 15:41:44;;;;;;;;;48.00;39.50;;;;;28.78;16.02;102422.75;5056231;28;45354;-71
2022/03/19 15:44:10;;;;;;;;;40.75;32.50;;;;;28.80;16.42;102423.47;5055765;28;46266;-70
2022/03/19 15:46:36;;;;;;;;;44.50;36.75;;;;;28.80;16.22;102442.81;5055947;28;45318;-71
2022/03/19 15:49:03;;;;;;;;;45.00;34.75;;;;;28.83;16.19;102437.00;5056057;28;45330;-71
2022/03/19 15:51:28;;;;;;;;;43.50;35.25;;;;;28.68;16.08;102435.66;5056265;28;45242;-70
2022/03/19 15:53:54;;;;;;;;;36.75;33.25;;;;;28.65;15.93;102445.13;5055538;28;46706;-70
2022/03/19 15:56:19;;;;;;;;;43.00;35.25;;;;;28.59;16.50;102431.88;5055894;28;45258;-71
2022/03/19 15:58:45;;;;;;;;;38.00;32.75;;;;;28.51;16.61;102429.88;5056132;28;45495;-72
2022/03/19 16:01:10;;;;;;;;;43.75;35.25;;;;;28.40;16.65;102423.66;5055077;28;45337;-72
2022/03/19 16:03:35;;;;;;;;;43.25;34.25;;;;;28.35;16.14;102431.47;5055578;28;46131;-71
2022/03/19 16:06:01;;;;;;;;;36.25;31.00;;;;;28.23;16.84;102420.59;5055825;28;45534;-73
2022/03/19 16:08:26;;;;;;;;;47.50;38.75;;;;;28.09;17.45;102423.72;5034342;28;45455;-71
2022/03/19 16:10:52;;;;;;;;;48.25;37.50;;;;;27.89;18.03;102416.47;5033819;28;45314;-70
2022/03/19 16:13:17;;;;;;;;;48.75;38.00;;;;;27.53;18.19;102414.31;5052097;28;46592;-72
2022/03/19 16:15:43;;;;;;;;;48.25;40.25;;;;;27.43;18.42;102409.63;5054420;28;45301;-70
2022/03/19 16:18:08;;;;;;;;;52.75;37.75;;;;;27.43;18.45;102417.91;5054459;28;45349;-70
2022/03/19 16:20:34;;;;;;;;;35.50;30.75;;;;;27.33;18.15;102405.97;5054881;28;45600;-70
2022/03/19 16:22:59;;;;;;;;;35.75;29.50;;;;;27.30;18.21;102419.16;5054960;28;45403;-71